sensor_id;sensor_type;location;lat;lon;timestamp;P1;durP1;ratioP1;P2;durP2;ratioP2
6517;SDS011;3292;48.944;9.240;2022-08-05T00:01:10;4.35;;;3.38;;
6517;SDS011;3292;48.944;9.240;2022-08-05T00:03:38;6.03;;;3.83;;
6517;SDS011;3292;48.944;9.240;2022-08-05T00:06:05;4.18;;;3.60;;
6517;SDS011;3292;48.944;9.240;2022-08-05T00:08:34;5.05;;;3.80;;
6517;SDS011;3292;48.944;9.240;2022-08-05T00:11:03;4.45;;;3.17;;
6517;SDS011;3292;48.944;9.240;2022-08-05T00:13:31;3.97;;;3.63;;
6517;SDS011;3292;48.944;9.240;2022-08-05T00:15:58;4.65;;;3.45;;
6517;SDS011;3292;48.944;9.240;2022-08-05T00:18:25;4.43;;;3.22;;
6517;SDS011;3292;48.944;9.240;2022-08-05T00:20:52;3.58;;;3.22;;
6517;SDS011;3292;48.944;9.240;2022-08-05T00:23:20;7.38;;;3.78;;
6517;SDS011;3292;48.944;9.240;2022-08-05T00:25:48;6.45;;;4.00;;
6517;SDS011;3292;48.944;9.240;2022-08-05T00:28:15;7.13;;;3.60;;
6517;SDS011;3292;48.944;9.240;2022-08-05T00:30:42;3.97;;;3.55;;
6517;SDS011;3292;48.944;9.240;2022-08-05T00:33:09;4.38;;;3.33;;
6517;SDS011;3292;48.944;9.240;2022-08-05T00:35:36;4.60;;;3.88;;
6517;SDS011;3292;48.944;9.240;2022-08-05T00:38:03;4.35;;;3.60;;
6517;SDS011;3292;48.944;9.240;2022-08-05T00:40:30;4.25;;;3.65;;
6517;SDS011;3292;48.944;9.240;2022-08-05T00:43:00;4.85;;;3.92;;
6517;SDS011;3292;48.944;9.240;2022-08-05T00:45:28;5.65;;;3.85;;
6517;SDS011;3292;48.944;9.240;2022-08-05T00:47:55;4.35;;;3.60;;
6517;SDS011;3292;48.944;9.240;2022-08-05T00:50:22;7.07;;;4.00;;
6517;SDS011;3292;48.944;9.240;2022-08-05T00:52:49;7.25;;;4.10;;
6517;SDS011;3292;48.944;9.240;2022-08-05T00:55:15;7.32;;;4.18;;
6517;SDS011;3292;48.944;9.240;2022-08-05T00:57:42;4.40;;;3.88;;
6517;SDS011;3292;48.944;9.240;2022-08-05T01:00:11;8.43;;;3.92;;
6517;SDS011;3292;48.944;9.240;2022-08-05T01:02:38;6.68;;;3.60;;
6517;SDS011;3292;48.944;9.240;2022-08-05T01:05:05;6.47;;;3.50;;
6517;SDS011;3292;48.944;9.240;2022-08-05T01:07:33;5.80;;;3.45;;
6517;SDS011;3292;48.944;9.240;2022-08-05T01:10:00;4.30;;;3.90;;
6517;SDS011;3292;48.944;9.240;2022-08-05T01:12:29;4.80;;;3.22;;
6517;SDS011;3292;48.944;9.240;2022-08-05T01:14:56;4.15;;;3.30;;
6517;SDS011;3292;48.944;9.240;2022-08-05T01:17:28;3.45;;;3.08;;
6517;SDS011;3292;48.944;9.240;2022-08-05T01:20:04;3.40;;;3.10;;
6517;SDS011;3292;48.944;9.240;2022-08-05T01:22:44;4.18;;;3.20;;
6517;SDS011;3292;48.944;9.240;2022-08-05T01:25:27;4.97;;;3.28;;
6517;SDS011;3292;48.944;9.240;2022-08-05T01:28:08;3.13;;;2.83;;
6517;SDS011;3292;48.944;9.240;2022-08-05T01:30:42;4.55;;;3.05;;
6517;SDS011;3292;48.944;9.240;2022-08-05T01:33:19;4.88;;;2.92;;
6517;SDS011;3292;48.944;9.240;2022-08-05T01:35:49;5.05;;;3.25;;
6517;SDS011;3292;48.944;9.240;2022-08-05T01:38:18;3.38;;;2.92;;
6517;SDS011;3292;48.944;9.240;2022-08-05T01:40:47;5.15;;;3.10;;
6517;SDS011;3292;48.944;9.240;2022-08-05T01:43:15;4.03;;;3.20;;
6517;SDS011;3292;48.944;9.240;2022-08-05T01:45:43;6.03;;;3.45;;
6517;SDS011;3292;48.944;9.240;2022-08-05T01:48:11;4.13;;;3.30;;
6517;SDS011;3292;48.944;9.240;2022-08-05T01:50:41;8.20;;;3.28;;
6517;SDS011;3292;48.944;9.240;2022-08-05T01:53:11;5.38;;;3.20;;
6517;SDS011;3292;48.944;9.240;2022-08-05T01:55:41;6.32;;;3.30;;
6517;SDS011;3292;48.944;9.240;2022-08-05T01:58:09;4.53;;;3.20;;
6517;SDS011;3292;48.944;9.240;2022-08-05T02:00:41;4.45;;;2.92;;
6517;SDS011;3292;48.944;9.240;2022-08-05T02:03:11;5.13;;;2.75;;
6517;SDS011;3292;48.944;9.240;2022-08-05T02:05:42;5.18;;;2.80;;
6517;SDS011;3292;48.944;9.240;2022-08-05T02:08:10;7.72;;;3.05;;
6517;SDS011;3292;48.944;9.240;2022-08-05T02:10:38;7.93;;;3.10;;
6517;SDS011;3292;48.944;9.240;2022-08-05T02:13:09;6.68;;;2.70;;
6517;SDS011;3292;48.944;9.240;2022-08-05T02:15:42;9.57;;;3.15;;
6517;SDS011;3292;48.944;9.240;2022-08-05T02:18:13;5.00;;;2.92;;
6517;SDS011;3292;48.944;9.240;2022-08-05T02:20:46;7.15;;;3.38;;
6517;SDS011;3292;48.944;9.240;2022-08-05T02:23:23;4.55;;;3.00;;
6517;SDS011;3292;48.944;9.240;2022-08-05T02:25:56;4.70;;;3.10;;
6517;SDS011;3292;48.944;9.240;2022-08-05T02:28:26;5.70;;;2.92;;
6517;SDS011;3292;48.944;9.240;2022-08-05T02:30:57;5.60;;;2.80;;
6517;SDS011;3292;48.944;9.240;2022-08-05T02:33:26;5.00;;;2.90;;
6517;SDS011;3292;48.944;9.240;2022-08-05T02:35:56;5.60;;;3.15;;
6517;SDS011;3292;48.944;9.240;2022-08-05T02:38:24;5.88;;;3.10;;
6517;SDS011;3292;48.944;9.240;2022-08-05T02:40:55;4.03;;;3.03;;
6517;SDS011;3292;48.944;9.240;2022-08-05T02:43:24;7.32;;;3.33;;
6517;SDS011;3292;48.944;9.240;2022-08-05T02:45:52;5.10;;;2.85;;
6517;SDS011;3292;48.944;9.240;2022-08-05T02:48:21;4.88;;;3.03;;
6517;SDS011;3292;48.944;9.240;2022-08-05T02:50:51;4.20;;;3.15;;
6517;SDS011;3292;48.944;9.240;2022-08-05T02:53:18;3.10;;;2.80;;
6517;SDS011;3292;48.944;9.240;2022-08-05T02:55:47;6.53;;;2.83;;
6517;SDS011;3292;48.944;9.240;2022-08-05T02:58:17;5.67;;;3.27;;
6517;SDS011;3292;48.944;9.240;2022-08-05T03:00:45;6.05;;;2.92;;
6517;SDS011;3292;48.944;9.240;2022-08-05T03:03:13;6.10;;;3.15;;
6517;SDS011;3292;48.944;9.240;2022-08-05T03:05:45;7.30;;;3.30;;
6517;SDS011;3292;48.944;9.240;2022-08-05T03:08:14;5.15;;;2.97;;
6517;SDS011;3292;48.944;9.240;2022-08-05T03:10:42;6.80;;;3.13;;
6517;SDS011;3292;48.944;9.240;2022-08-05T03:13:12;8.68;;;2.97;;
6517;SDS011;3292;48.944;9.240;2022-08-05T03:15:42;5.63;;;2.92;;
6517;SDS011;3292;48.944;9.240;2022-08-05T03:18:10;5.72;;;3.20;;
6517;SDS011;3292;48.944;9.240;2022-08-05T03:20:37;6.07;;;3.03;;
6517;SDS011;3292;48.944;9.240;2022-08-05T03:23:08;3.90;;;3.10;;
6517;SDS011;3292;48.944;9.240;2022-08-05T03:25:37;6.33;;;3.17;;
6517;SDS011;3292;48.944;9.240;2022-08-05T03:28:04;5.50;;;3.35;;
6517;SDS011;3292;48.944;9.240;2022-08-05T03:30:33;6.67;;;3.37;;
6517;SDS011;3292;48.944;9.240;2022-08-05T03:33:00;8.27;;;3.30;;
6517;SDS011;3292;48.944;9.240;2022-08-05T03:35:29;7.65;;;3.60;;
6517;SDS011;3292;48.944;9.240;2022-08-05T03:37:57;8.33;;;3.30;;
6517;SDS011;3292;48.944;9.240;2022-08-05T03:40:25;9.40;;;3.30;;
6517;SDS011;3292;48.944;9.240;2022-08-05T03:42:52;4.13;;;3.05;;
6517;SDS011;3292;48.944;9.240;2022-08-05T03:45:19;4.20;;;3.00;;
6517;SDS011;3292;48.944;9.240;2022-08-05T03:47:46;4.78;;;3.30;;
6517;SDS011;3292;48.944;9.240;2022-08-05T03:50:13;4.50;;;2.92;;
6517;SDS011;3292;48.944;9.240;2022-08-05T03:52:43;4.65;;;3.38;;
6517;SDS011;3292;48.944;9.240;2022-08-05T03:55:16;5.78;;;3.35;;
6517;SDS011;3292;48.944;9.240;2022-08-05T03:57:51;5.82;;;3.42;;
6517;SDS011;3292;48.944;9.240;2022-08-05T04:00:20;4.80;;;3.58;;
6517;SDS011;3292;48.944;9.240;2022-08-05T04:02:50;6.60;;;3.53;;
6517;SDS011;3292;48.944;9.240;2022-08-05T04:05:20;3.70;;;3.33;;
6517;SDS011;3292;48.944;9.240;2022-08-05T04:07:48;6.00;;;3.40;;
6517;SDS011;3292;48.944;9.240;2022-08-05T04:10:16;5.67;;;3.50;;
6517;SDS011;3292;48.944;9.240;2022-08-05T04:12:44;4.20;;;3.15;;
6517;SDS011;3292;48.944;9.240;2022-08-05T04:15:12;6.20;;;3.97;;
6517;SDS011;3292;48.944;9.240;2022-08-05T04:17:40;7.40;;;3.87;;
6517;SDS011;3292;48.944;9.240;2022-08-05T04:20:15;4.77;;;3.80;;
6517;SDS011;3292;48.944;9.240;2022-08-05T04:22:43;7.80;;;3.67;;
6517;SDS011;3292;48.944;9.240;2022-08-05T04:25:10;7.53;;;3.40;;
6517;SDS011;3292;48.944;9.240;2022-08-05T04:27:37;7.97;;;3.47;;
6517;SDS011;3292;48.944;9.240;2022-08-05T04:30:04;7.03;;;3.27;;
6517;SDS011;3292;48.944;9.240;2022-08-05T04:32:33;10.67;;;4.07;;
6517;SDS011;3292;48.944;9.240;2022-08-05T04:35:01;8.40;;;4.10;;
6517;SDS011;3292;48.944;9.240;2022-08-05T04:37:27;13.50;;;4.43;;
6517;SDS011;3292;48.944;9.240;2022-08-05T04:39:54;11.00;;;4.30;;
6517;SDS011;3292;48.944;9.240;2022-08-05T04:42:21;9.77;;;3.90;;
6517;SDS011;3292;48.944;9.240;2022-08-05T04:44:48;10.77;;;4.30;;
6517;SDS011;3292;48.944;9.240;2022-08-05T04:47:15;11.07;;;3.47;;
6517;SDS011;3292;48.944;9.240;2022-08-05T04:49:43;8.63;;;4.20;;
6517;SDS011;3292;48.944;9.240;2022-08-05T04:52:10;8.00;;;3.43;;
6517;SDS011;3292;48.944;9.240;2022-08-05T04:54:37;8.83;;;3.83;;
6517;SDS011;3292;48.944;9.240;2022-08-05T04:57:04;7.70;;;3.73;;
6517;SDS011;3292;48.944;9.240;2022-08-05T04:59:31;10.17;;;4.13;;
6517;SDS011;3292;48.944;9.240;2022-08-05T05:01:57;7.00;;;4.33;;
6517;SDS011;3292;48.944;9.240;2022-08-05T05:04:24;11.33;;;4.00;;
6517;SDS011;3292;48.944;9.240;2022-08-05T05:06:52;8.03;;;4.10;;
6517;SDS011;3292;48.944;9.240;2022-08-05T05:09:19;8.10;;;3.63;;
6517;SDS011;3292;48.944;9.240;2022-08-05T05:11:46;9.73;;;3.90;;
6517;SDS011;3292;48.944;9.240;2022-08-05T05:14:13;10.73;;;4.20;;
6517;SDS011;3292;48.944;9.240;2022-08-05T05:16:40;8.77;;;3.73;;
6517;SDS011;3292;48.944;9.240;2022-08-05T05:19:07;13.53;;;3.53;;
6517;SDS011;3292;48.944;9.240;2022-08-05T05:21:33;6.03;;;3.60;;
6517;SDS011;3292;48.944;9.240;2022-08-05T05:24:02;8.63;;;3.60;;
6517;SDS011;3292;48.944;9.240;2022-08-05T05:26:29;9.23;;;4.10;;
6517;SDS011;3292;48.944;9.240;2022-08-05T05:28:56;11.75;;;4.40;;
6517;SDS011;3292;48.944;9.240;2022-08-05T05:31:23;9.13;;;4.00;;
6517;SDS011;3292;48.944;9.240;2022-08-05T05:33:49;13.55;;;4.38;;
6517;SDS011;3292;48.944;9.240;2022-08-05T05:36:18;7.90;;;4.20;;
6517;SDS011;3292;48.944;9.240;2022-08-05T05:38:45;8.13;;;4.00;;
6517;SDS011;3292;48.944;9.240;2022-08-05T05:41:13;9.47;;;4.10;;
6517;SDS011;3292;48.944;9.240;2022-08-05T05:43:40;4.95;;;3.75;;
6517;SDS011;3292;48.944;9.240;2022-08-05T05:46:07;8.68;;;3.95;;
6517;SDS011;3292;48.944;9.240;2022-08-05T05:48:33;7.32;;;3.50;;
6517;SDS011;3292;48.944;9.240;2022-08-05T05:51:00;5.55;;;3.13;;
6517;SDS011;3292;48.944;9.240;2022-08-05T05:53:27;5.40;;;3.00;;
6517;SDS011;3292;48.944;9.240;2022-08-05T05:55:54;5.93;;;2.97;;
6517;SDS011;3292;48.944;9.240;2022-08-05T05:58:22;7.28;;;3.38;;
6517;SDS011;3292;48.944;9.240;2022-08-05T06:00:49;5.55;;;3.22;;
6517;SDS011;3292;48.944;9.240;2022-08-05T06:03:16;3.60;;;2.67;;
6517;SDS011;3292;48.944;9.240;2022-08-05T06:05:43;4.35;;;3.00;;
6517;SDS011;3292;48.944;9.240;2022-08-05T06:08:13;5.45;;;2.83;;
6517;SDS011;3292;48.944;9.240;2022-08-05T06:10:39;4.60;;;2.45;;
6517;SDS011;3292;48.944;9.240;2022-08-05T06:13:06;5.07;;;2.90;;
6517;SDS011;3292;48.944;9.240;2022-08-05T06:15:34;6.40;;;2.72;;
6517;SDS011;3292;48.944;9.240;2022-08-05T06:18:05;7.18;;;3.00;;
6517;SDS011;3292;48.944;9.240;2022-08-05T06:20:32;3.55;;;2.80;;
6517;SDS011;3292;48.944;9.240;2022-08-05T06:22:58;5.38;;;2.72;;
6517;SDS011;3292;48.944;9.240;2022-08-05T06:25:25;4.70;;;3.00;;
6517;SDS011;3292;48.944;9.240;2022-08-05T06:27:52;2.70;;;2.50;;
6517;SDS011;3292;48.944;9.240;2022-08-05T06:30:19;7.65;;;3.03;;
6517;SDS011;3292;48.944;9.240;2022-08-05T06:32:47;5.35;;;2.75;;
6517;SDS011;3292;48.944;9.240;2022-08-05T06:35:14;6.25;;;2.72;;
6517;SDS011;3292;48.944;9.240;2022-08-05T06:37:41;6.00;;;2.83;;
6517;SDS011;3292;48.944;9.240;2022-08-05T06:40:11;5.88;;;3.05;;
6517;SDS011;3292;48.944;9.240;2022-08-05T06:42:38;5.38;;;2.70;;
6517;SDS011;3292;48.944;9.240;2022-08-05T06:45:05;5.90;;;2.42;;
6517;SDS011;3292;48.944;9.240;2022-08-05T06:47:33;5.40;;;2.40;;
6517;SDS011;3292;48.944;9.240;2022-08-05T06:50:01;6.45;;;2.40;;
6517;SDS011;3292;48.944;9.240;2022-08-05T06:52:28;4.75;;;2.42;;
6517;SDS011;3292;48.944;9.240;2022-08-05T06:54:55;5.05;;;2.80;;
6517;SDS011;3292;48.944;9.240;2022-08-05T06:57:22;3.47;;;2.40;;
6517;SDS011;3292;48.944;9.240;2022-08-05T06:59:49;3.28;;;2.60;;
6517;SDS011;3292;48.944;9.240;2022-08-05T07:02:16;6.57;;;2.70;;
6517;SDS011;3292;48.944;9.240;2022-08-05T07:04:42;4.20;;;2.60;;
6517;SDS011;3292;48.944;9.240;2022-08-05T07:07:11;4.30;;;2.80;;
6517;SDS011;3292;48.944;9.240;2022-08-05T07:09:38;4.78;;;2.53;;
6517;SDS011;3292;48.944;9.240;2022-08-05T07:12:05;6.55;;;2.67;;
6517;SDS011;3292;48.944;9.240;2022-08-05T07:14:32;6.65;;;2.63;;
6517;SDS011;3292;48.944;9.240;2022-08-05T07:17:17;4.10;;;2.90;;
6517;SDS011;3292;48.944;9.240;2022-08-05T07:19:46;5.13;;;2.55;;
6517;SDS011;3292;48.944;9.240;2022-08-05T07:22:15;5.75;;;2.78;;
6517;SDS011;3292;48.944;9.240;2022-08-05T07:24:46;4.25;;;2.85;;
6517;SDS011;3292;48.944;9.240;2022-08-05T07:27:12;4.63;;;2.75;;
6517;SDS011;3292;48.944;9.240;2022-08-05T07:29:39;7.05;;;2.83;;
6517;SDS011;3292;48.944;9.240;2022-08-05T07:32:08;4.57;;;2.85;;
6517;SDS011;3292;48.944;9.240;2022-08-05T07:34:36;4.80;;;2.60;;
6517;SDS011;3292;48.944;9.240;2022-08-05T07:37:03;8.38;;;2.67;;
6517;SDS011;3292;48.944;9.240;2022-08-05T07:39:31;4.10;;;2.67;;
6517;SDS011;3292;48.944;9.240;2022-08-05T07:41:58;4.32;;;2.60;;
6517;SDS011;3292;48.944;9.240;2022-08-05T07:44:25;2.80;;;2.50;;
6517;SDS011;3292;48.944;9.240;2022-08-05T07:46:52;5.40;;;2.45;;
6517;SDS011;3292;48.944;9.240;2022-08-05T07:49:18;4.18;;;2.40;;
6517;SDS011;3292;48.944;9.240;2022-08-05T07:51:45;2.30;;;2.10;;
6517;SDS011;3292;48.944;9.240;2022-08-05T07:54:12;3.72;;;1.88;;
6517;SDS011;3292;48.944;9.240;2022-08-05T07:56:40;4.05;;;1.90;;
6517;SDS011;3292;48.944;9.240;2022-08-05T07:59:07;2.80;;;2.20;;
6517;SDS011;3292;48.944;9.240;2022-08-05T08:01:34;3.25;;;2.20;;
6517;SDS011;3292;48.944;9.240;2022-08-05T08:04:04;2.40;;;1.98;;
6517;SDS011;3292;48.944;9.240;2022-08-05T08:06:30;2.60;;;2.10;;
6517;SDS011;3292;48.944;9.240;2022-08-05T08:08:57;2.83;;;2.10;;
6517;SDS011;3292;48.944;9.240;2022-08-05T08:11:24;3.33;;;2.20;;
6517;SDS011;3292;48.944;9.240;2022-08-05T08:13:54;2.50;;;2.30;;
6517;SDS011;3292;48.944;9.240;2022-08-05T08:16:23;2.90;;;2.20;;
6517;SDS011;3292;48.944;9.240;2022-08-05T08:18:50;2.08;;;1.88;;
6517;SDS011;3292;48.944;9.240;2022-08-05T08:21:17;2.22;;;2.03;;
6517;SDS011;3292;48.944;9.240;2022-08-05T08:23:44;2.17;;;1.98;;
6517;SDS011;3292;48.944;9.240;2022-08-05T08:26:11;2.45;;;2.13;;
6517;SDS011;3292;48.944;9.240;2022-08-05T08:28:41;3.05;;;2.17;;
6517;SDS011;3292;48.944;9.240;2022-08-05T08:31:09;3.92;;;2.17;;
6517;SDS011;3292;48.944;9.240;2022-08-05T08:33:36;2.40;;;2.20;;
6517;SDS011;3292;48.944;9.240;2022-08-05T08:36:03;3.47;;;2.20;;
6517;SDS011;3292;48.944;9.240;2022-08-05T08:38:33;3.65;;;2.30;;
6517;SDS011;3292;48.944;9.240;2022-08-05T08:41:00;3.00;;;2.30;;
6517;SDS011;3292;48.944;9.240;2022-08-05T08:43:31;4.25;;;2.30;;
6517;SDS011;3292;48.944;9.240;2022-08-05T08:45:58;2.88;;;2.40;;
6517;SDS011;3292;48.944;9.240;2022-08-05T08:48:29;2.63;;;2.42;;
6517;SDS011;3292;48.944;9.240;2022-08-05T08:50:58;2.83;;;1.95;;
6517;SDS011;3292;48.944;9.240;2022-08-05T08:53:26;3.55;;;2.47;;
6517;SDS011;3292;48.944;9.240;2022-08-05T08:55:54;5.15;;;2.30;;
6517;SDS011;3292;48.944;9.240;2022-08-05T08:58:22;4.63;;;2.30;;
6517;SDS011;3292;48.944;9.240;2022-08-05T09:00:49;5.32;;;2.30;;
6517;SDS011;3292;48.944;9.240;2022-08-05T09:03:16;4.72;;;2.17;;
6517;SDS011;3292;48.944;9.240;2022-08-05T09:05:47;3.00;;;2.20;;
6517;SDS011;3292;48.944;9.240;2022-08-05T09:08:14;2.65;;;2.33;;
6517;SDS011;3292;48.944;9.240;2022-08-05T09:10:41;3.17;;;2.30;;
6517;SDS011;3292;48.944;9.240;2022-08-05T09:13:08;3.30;;;2.10;;
6517;SDS011;3292;48.944;9.240;2022-08-05T09:15:36;3.00;;;2.20;;
6517;SDS011;3292;48.944;9.240;2022-08-05T09:18:05;3.30;;;2.10;;
6517;SDS011;3292;48.944;9.240;2022-08-05T09:20:33;2.30;;;2.10;;
6517;SDS011;3292;48.944;9.240;2022-08-05T09:23:09;2.08;;;1.88;;
6517;SDS011;3292;48.944;9.240;2022-08-05T09:25:37;3.30;;;2.35;;
6517;SDS011;3292;48.944;9.240;2022-08-05T09:28:10;3.13;;;2.03;;
6517;SDS011;3292;48.944;9.240;2022-08-05T09:30:41;2.30;;;2.10;;
6517;SDS011;3292;48.944;9.240;2022-08-05T09:33:09;2.67;;;1.98;;
6517;SDS011;3292;48.944;9.240;2022-08-05T09:35:36;2.60;;;2.40;;
6517;SDS011;3292;48.944;9.240;2022-08-05T09:38:06;2.67;;;2.35;;
6517;SDS011;3292;48.944;9.240;2022-08-05T09:40:35;4.63;;;2.10;;
6517;SDS011;3292;48.944;9.240;2022-08-05T09:43:05;3.67;;;2.03;;
6517;SDS011;3292;48.944;9.240;2022-08-05T09:45:37;2.55;;;2.15;;
6517;SDS011;3292;48.944;9.240;2022-08-05T09:50:52;2.97;;;2.45;;
6517;SDS011;3292;48.944;9.240;2022-08-05T09:53:22;1.95;;;1.85;;
6517;SDS011;3292;48.944;9.240;2022-08-05T09:55:51;3.03;;;2.00;;
6517;SDS011;3292;48.944;9.240;2022-08-05T09:58:22;2.83;;;1.95;;
6517;SDS011;3292;48.944;9.240;2022-08-05T10:00:51;3.88;;;2.05;;
6517;SDS011;3292;48.944;9.240;2022-08-05T10:03:28;3.58;;;1.90;;
6517;SDS011;3292;48.944;9.240;2022-08-05T10:05:59;2.80;;;1.80;;
6517;SDS011;3292;48.944;9.240;2022-08-05T10:08:32;3.42;;;2.20;;
6517;SDS011;3292;48.944;9.240;2022-08-05T10:11:02;2.45;;;2.25;;
6517;SDS011;3292;48.944;9.240;2022-08-05T10:13:32;4.30;;;2.25;;
6517;SDS011;3292;48.944;9.240;2022-08-05T10:16:01;3.55;;;2.05;;
6517;SDS011;3292;48.944;9.240;2022-08-05T10:18:29;2.80;;;2.03;;
6517;SDS011;3292;48.944;9.240;2022-08-05T10:20:58;2.63;;;2.25;;
6517;SDS011;3292;48.944;9.240;2022-08-05T10:23:27;2.40;;;2.20;;
6517;SDS011;3292;48.944;9.240;2022-08-05T10:25:56;2.22;;;2.00;;
6517;SDS011;3292;48.944;9.240;2022-08-05T10:28:25;2.40;;;2.05;;
6517;SDS011;3292;48.944;9.240;2022-08-05T10:30:52;4.40;;;2.30;;
6517;SDS011;3292;48.944;9.240;2022-08-05T10:33:21;4.55;;;2.22;;
6517;SDS011;3292;48.944;9.240;2022-08-05T10:35:50;4.05;;;2.30;;
6517;SDS011;3292;48.944;9.240;2022-08-05T10:38:18;2.38;;;1.92;;
6517;SDS011;3292;48.944;9.240;2022-08-05T10:40:49;2.35;;;2.08;;
6517;SDS011;3292;48.944;9.240;2022-08-05T10:43:30;3.13;;;2.22;;
6517;SDS011;3292;48.944;9.240;2022-08-05T10:46:03;5.25;;;2.47;;
6517;SDS011;3292;48.944;9.240;2022-08-05T10:48:33;3.28;;;2.00;;
6517;SDS011;3292;48.944;9.240;2022-08-05T10:51:03;3.50;;;2.45;;
6517;SDS011;3292;48.944;9.240;2022-08-05T10:53:33;2.85;;;2.25;;
6517;SDS011;3292;48.944;9.240;2022-08-05T10:56:03;2.40;;;2.20;;
6517;SDS011;3292;48.944;9.240;2022-08-05T10:58:35;2.30;;;2.10;;
6517;SDS011;3292;48.944;9.240;2022-08-05T11:01:13;2.22;;;2.00;;
6517;SDS011;3292;48.944;9.240;2022-08-05T11:04:00;4.82;;;2.20;;
6517;SDS011;3292;48.944;9.240;2022-08-05T11:06:30;5.18;;;2.30;;
6517;SDS011;3292;48.944;9.240;2022-08-05T11:11:46;2.75;;;2.00;;
6517;SDS011;3292;48.944;9.240;2022-08-05T11:14:23;2.55;;;2.03;;
6517;SDS011;3292;48.944;9.240;2022-08-05T11:19:53;3.05;;;2.25;;
6517;SDS011;3292;48.944;9.240;2022-08-05T11:25:32;5.05;;;2.35;;
6517;SDS011;3292;48.944;9.240;2022-08-05T11:31:27;2.83;;;2.33;;
6517;SDS011;3292;48.944;9.240;2022-08-05T11:34:02;2.50;;;2.28;;
6517;SDS011;3292;48.944;9.240;2022-08-05T11:36:40;2.25;;;2.05;;
6517;SDS011;3292;48.944;9.240;2022-08-05T11:39:10;2.25;;;2.05;;
6517;SDS011;3292;48.944;9.240;2022-08-05T11:41:38;3.95;;;3.05;;
6517;SDS011;3292;48.944;9.240;2022-08-05T11:44:06;2.70;;;2.35;;
6517;SDS011;3292;48.944;9.240;2022-08-05T11:46:38;2.47;;;2.03;;
6517;SDS011;3292;48.944;9.240;2022-08-05T11:49:07;3.15;;;1.95;;
6517;SDS011;3292;48.944;9.240;2022-08-05T11:51:39;4.53;;;2.13;;
6517;SDS011;3292;48.944;9.240;2022-08-05T11:54:09;2.20;;;2.00;;
6517;SDS011;3292;48.944;9.240;2022-08-05T11:56:46;2.95;;;2.10;;
6517;SDS011;3292;48.944;9.240;2022-08-05T11:59:15;2.75;;;2.05;;
6517;SDS011;3292;48.944;9.240;2022-08-05T12:04:37;5.10;;;2.20;;
6517;SDS011;3292;48.944;9.240;2022-08-05T12:07:05;2.53;;;1.95;;
6517;SDS011;3292;48.944;9.240;2022-08-05T12:09:35;2.25;;;2.05;;
6517;SDS011;3292;48.944;9.240;2022-08-05T12:12:03;3.50;;;1.80;;
6517;SDS011;3292;48.944;9.240;2022-08-05T12:14:35;3.10;;;1.98;;
6517;SDS011;3292;48.944;9.240;2022-08-05T12:17:07;2.15;;;1.80;;
6517;SDS011;3292;48.944;9.240;2022-08-05T12:19:41;2.22;;;1.85;;
6517;SDS011;3292;48.944;9.240;2022-08-05T12:22:10;2.33;;;2.10;;
6517;SDS011;3292;48.944;9.240;2022-08-05T12:24:41;2.22;;;1.85;;
6517;SDS011;3292;48.944;9.240;2022-08-05T12:27:08;2.45;;;2.00;;
6517;SDS011;3292;48.944;9.240;2022-08-05T12:29:36;3.35;;;1.83;;
6517;SDS011;3292;48.944;9.240;2022-08-05T12:32:03;2.67;;;2.13;;
6517;SDS011;3292;48.944;9.240;2022-08-05T12:34:34;3.25;;;2.00;;
6517;SDS011;3292;48.944;9.240;2022-08-05T12:37:04;3.72;;;1.80;;
6517;SDS011;3292;48.944;9.240;2022-08-05T12:39:35;2.55;;;2.05;;
6517;SDS011;3292;48.944;9.240;2022-08-05T12:42:06;1.98;;;1.88;;
6517;SDS011;3292;48.944;9.240;2022-08-05T12:44:34;2.13;;;1.90;;
6517;SDS011;3292;48.944;9.240;2022-08-05T12:47:02;2.53;;;2.05;;
6517;SDS011;3292;48.944;9.240;2022-08-05T12:52:16;2.33;;;2.10;;
6517;SDS011;3292;48.944;9.240;2022-08-05T12:54:44;2.30;;;2.10;;
6517;SDS011;3292;48.944;9.240;2022-08-05T12:57:13;2.00;;;1.80;;
6517;SDS011;3292;48.944;9.240;2022-08-05T12:59:44;2.40;;;2.20;;
6517;SDS011;3292;48.944;9.240;2022-08-05T13:02:17;4.32;;;2.28;;
6517;SDS011;3292;48.944;9.240;2022-08-05T13:04:46;2.45;;;1.80;;
6517;SDS011;3292;48.944;9.240;2022-08-05T13:07:17;3.38;;;2.08;;
6517;SDS011;3292;48.944;9.240;2022-08-05T13:09:48;3.28;;;1.95;;
6517;SDS011;3292;48.944;9.240;2022-08-05T13:12:17;3.78;;;1.98;;
6517;SDS011;3292;48.944;9.240;2022-08-05T13:14:45;2.25;;;2.08;;
6517;SDS011;3292;48.944;9.240;2022-08-05T13:17:16;3.33;;;2.10;;
6517;SDS011;3292;48.944;9.240;2022-08-05T13:20:03;2.75;;;2.40;;
6517;SDS011;3292;48.944;9.240;2022-08-05T13:22:32;2.90;;;2.00;;
6517;SDS011;3292;48.944;9.240;2022-08-05T13:25:02;3.60;;;2.20;;
6517;SDS011;3292;48.944;9.240;2022-08-05T13:27:30;2.15;;;1.80;;
6517;SDS011;3292;48.944;9.240;2022-08-05T13:29:58;3.85;;;1.98;;
6517;SDS011;3292;48.944;9.240;2022-08-05T13:32:25;2.80;;;2.20;;
6517;SDS011;3292;48.944;9.240;2022-08-05T13:34:52;3.05;;;2.08;;
6517;SDS011;3292;48.944;9.240;2022-08-05T13:37:20;2.40;;;2.20;;
6517;SDS011;3292;48.944;9.240;2022-08-05T13:39:48;2.22;;;2.00;;
6517;SDS011;3292;48.944;9.240;2022-08-05T13:42:17;2.97;;;2.30;;
6517;SDS011;3292;48.944;9.240;2022-08-05T13:44:45;2.13;;;1.92;;
6517;SDS011;3292;48.944;9.240;2022-08-05T13:47:12;3.80;;;2.13;;
6517;SDS011;3292;48.944;9.240;2022-08-05T13:49:41;3.33;;;2.17;;
6517;SDS011;3292;48.944;9.240;2022-08-05T13:52:08;4.13;;;2.30;;
6517;SDS011;3292;48.944;9.240;2022-08-05T13:54:38;3.72;;;2.20;;
6517;SDS011;3292;48.944;9.240;2022-08-05T13:57:05;2.35;;;2.13;;
6517;SDS011;3292;48.944;9.240;2022-08-05T13:59:35;3.13;;;2.00;;
6517;SDS011;3292;48.944;9.240;2022-08-05T14:02:03;2.95;;;2.08;;
6517;SDS011;3292;48.944;9.240;2022-08-05T14:04:31;2.10;;;2.00;;
6517;SDS011;3292;48.944;9.240;2022-08-05T14:07:18;3.10;;;2.10;;
6517;SDS011;3292;48.944;9.240;2022-08-05T14:09:47;2.28;;;1.90;;
6517;SDS011;3292;48.944;9.240;2022-08-05T14:12:14;2.90;;;2.20;;
6517;SDS011;3292;48.944;9.240;2022-08-05T14:14:41;2.97;;;2.28;;
6517;SDS011;3292;48.944;9.240;2022-08-05T14:17:08;2.60;;;2.00;;
6517;SDS011;3292;48.944;9.240;2022-08-05T14:19:34;2.40;;;2.20;;
6517;SDS011;3292;48.944;9.240;2022-08-05T14:22:01;2.25;;;2.10;;
6517;SDS011;3292;48.944;9.240;2022-08-05T14:24:29;4.10;;;2.30;;
6517;SDS011;3292;48.944;9.240;2022-08-05T14:26:57;4.55;;;2.20;;
6517;SDS011;3292;48.944;9.240;2022-08-05T14:29:24;4.70;;;2.45;;
6517;SDS011;3292;48.944;9.240;2022-08-05T14:31:51;4.25;;;2.80;;
6517;SDS011;3292;48.944;9.240;2022-08-05T14:34:18;3.70;;;2.47;;
6517;SDS011;3292;48.944;9.240;2022-08-05T14:36:44;7.10;;;2.55;;
6517;SDS011;3292;48.944;9.240;2022-08-05T14:39:11;5.50;;;2.47;;
6517;SDS011;3292;48.944;9.240;2022-08-05T14:41:38;6.75;;;2.58;;
6517;SDS011;3292;48.944;9.240;2022-08-05T14:44:06;7.38;;;2.70;;
6517;SDS011;3292;48.944;9.240;2022-08-05T14:46:33;5.93;;;2.53;;
6517;SDS011;3292;48.944;9.240;2022-08-05T14:49:01;3.42;;;2.60;;
6517;SDS011;3292;48.944;9.240;2022-08-05T14:51:29;4.15;;;3.00;;
6517;SDS011;3292;48.944;9.240;2022-08-05T14:53:56;3.70;;;2.85;;
6517;SDS011;3292;48.944;9.240;2022-08-05T14:56:23;3.25;;;2.70;;
6517;SDS011;3292;48.944;9.240;2022-08-05T14:58:50;3.50;;;2.80;;
6517;SDS011;3292;48.944;9.240;2022-08-05T15:01:18;2.83;;;2.63;;
6517;SDS011;3292;48.944;9.240;2022-08-05T15:03:45;3.20;;;2.88;;
6517;SDS011;3292;48.944;9.240;2022-08-05T15:06:12;5.32;;;3.30;;
6517;SDS011;3292;48.944;9.240;2022-08-05T15:08:39;3.22;;;2.92;;
6517;SDS011;3292;48.944;9.240;2022-08-05T15:11:06;5.47;;;3.00;;
6517;SDS011;3292;48.944;9.240;2022-08-05T15:13:33;4.45;;;2.88;;
6517;SDS011;3292;48.944;9.240;2022-08-05T15:16:00;2.95;;;2.65;;
6517;SDS011;3292;48.944;9.240;2022-08-05T15:18:29;3.08;;;2.78;;
6517;SDS011;3292;48.944;9.240;2022-08-05T15:20:58;4.50;;;2.90;;
6517;SDS011;3292;48.944;9.240;2022-08-05T15:23:25;5.22;;;2.42;;
6517;SDS011;3292;48.944;9.240;2022-08-05T15:25:52;3.00;;;2.50;;
6517;SDS011;3292;48.944;9.240;2022-08-05T15:28:19;4.50;;;2.72;;
6517;SDS011;3292;48.944;9.240;2022-08-05T15:30:47;3.40;;;3.00;;
6517;SDS011;3292;48.944;9.240;2022-08-05T15:33:14;2.88;;;2.60;;
6517;SDS011;3292;48.944;9.240;2022-08-05T15:35:42;3.65;;;3.00;;
6517;SDS011;3292;48.944;9.240;2022-08-05T15:38:09;3.25;;;2.72;;
6517;SDS011;3292;48.944;9.240;2022-08-05T15:40:36;3.33;;;2.92;;
6517;SDS011;3292;48.944;9.240;2022-08-05T15:43:03;3.88;;;3.00;;
6517;SDS011;3292;48.944;9.240;2022-08-05T15:45:29;3.20;;;2.88;;